sensor_id;sensor_type;location;lat;lon;timestamp;temperature;humidity
21712;DHT22;11017;53.552;9.910;2023-06-04T00:02:16;15.40;93.00
21712;DHT22;11017;53.552;9.910;2023-06-04T00:04:43;15.40;93.10
21712;DHT22;11017;53.552;9.910;2023-06-04T00:07:10;15.40;93.10
21712;DHT22;11017;53.552;9.910;2023-06-04T00:09:37;15.30;94.10
21712;DHT22;11017;53.552;9.910;2023-06-04T00:12:04;15.20;94.90
21712;DHT22;11017;53.552;9.910;2023-06-04T00:14:31;15.20;94.80
21712;DHT22;11017;53.552;9.910;2023-06-04T00:17:00;15.20;94.40
21712;DHT22;11017;53.552;9.910;2023-06-04T00:19:26;15.00;95.00
21712;DHT22;11017;53.552;9.910;2023-06-04T00:21:53;15.00;95.40
21712;DHT22;11017;53.552;9.910;2023-06-04T00:24:20;14.90;96.20
21712;DHT22;11017;53.552;9.910;2023-06-04T00:26:47;14.80;96.60
21712;DHT22;11017;53.552;9.910;2023-06-04T00:29:14;14.80;97.10
21712;DHT22;11017;53.552;9.910;2023-06-04T00:31:41;14.70;97.40
21712;DHT22;11017;53.552;9.910;2023-06-04T00:34:10;14.70;97.70
21712;DHT22;11017;53.552;9.910;2023-06-04T00:36:37;14.50;98.50
21712;DHT22;11017;53.552;9.910;2023-06-04T00:39:03;14.50;99.00
21712;DHT22;11017;53.552;9.910;2023-06-04T00:41:30;14.60;99.50
21712;DHT22;11017;53.552;9.910;2023-06-04T00:43:57;14.50;99.90
21712;DHT22;11017;53.552;9.910;2023-06-04T00:46:28;14.40;99.90
21712;DHT22;11017;53.552;9.910;2023-06-04T00:48:56;14.40;99.90
21712;DHT22;11017;53.552;9.910;2023-06-04T00:51:25;14.40;99.90
21712;DHT22;11017;53.552;9.910;2023-06-04T00:53:52;14.40;99.90
21712;DHT22;11017;53.552;9.910;2023-06-04T00:56:19;14.40;99.90
21712;DHT22;11017;53.552;9.910;2023-06-04T00:58:46;14.30;99.90
21712;DHT22;11017;53.552;9.910;2023-06-04T01:01:20;14.30;99.90
21712;DHT22;11017;53.552;9.910;2023-06-04T01:03:51;14.30;99.90
21712;DHT22;11017;53.552;9.910;2023-06-04T01:06:27;14.30;99.90
21712;DHT22;11017;53.552;9.910;2023-06-04T01:08:57;14.20;99.90
21712;DHT22;11017;53.552;9.910;2023-06-04T01:11:35;14.10;99.90
21712;DHT22;11017;53.552;9.910;2023-06-04T01:14:03;14.20;99.90
21712;DHT22;11017;53.552;9.910;2023-06-04T01:16:39;14.10;99.90
21712;DHT22;11017;53.552;9.910;2023-06-04T01:19:16;14.00;99.90
21712;DHT22;11017;53.552;9.910;2023-06-04T01:21:48;13.90;99.90
21712;DHT22;11017;53.552;9.910;2023-06-04T01:24:21;13.80;99.90
21712;DHT22;11017;53.552;9.910;2023-06-04T01:26:53;13.80;99.90
21712;DHT22;11017;53.552;9.910;2023-06-04T01:29:22;13.60;99.90
21712;DHT22;11017;53.552;9.910;2023-06-04T01:31:50;13.40;99.90
21712;DHT22;11017;53.552;9.910;2023-06-04T01:34:19;13.30;99.90
21712;DHT22;11017;53.552;9.910;2023-06-04T01:36:45;13.20;99.90
21712;DHT22;11017;53.552;9.910;2023-06-04T01:39:14;13.40;99.90
21712;DHT22;11017;53.552;9.910;2023-06-04T01:41:41;13.40;99.90
21712;DHT22;11017;53.552;9.910;2023-06-04T01:44:07;13.30;99.90
21712;DHT22;11017;53.552;9.910;2023-06-04T01:46:34;13.30;99.90
21712;DHT22;11017;53.552;9.910;2023-06-04T01:49:01;13.40;99.90
21712;DHT22;11017;53.552;9.910;2023-06-04T01:51:29;13.40;99.90
21712;DHT22;11017;53.552;9.910;2023-06-04T01:53:56;13.30;99.90
21712;DHT22;11017;53.552;9.910;2023-06-04T01:56:24;13.20;99.90
21712;DHT22;11017;53.552;9.910;2023-06-04T01:58:51;13.30;99.90
21712;DHT22;11017;53.552;9.910;2023-06-04T02:01:18;13.30;99.90
21712;DHT22;11017;53.552;9.910;2023-06-04T02:03:45;13.40;99.90
21712;DHT22;11017;53.552;9.910;2023-06-04T02:06:12;13.40;99.90
21712;DHT22;11017;53.552;9.910;2023-06-04T02:08:39;13.40;99.90
21712;DHT22;11017;53.552;9.910;2023-06-04T02:11:07;13.40;99.90
21712;DHT22;11017;53.552;9.910;2023-06-04T02:13:36;13.30;99.90
21712;DHT22;11017;53.552;9.910;2023-06-04T02:16:03;13.30;99.90
21712;DHT22;11017;53.552;9.910;2023-06-04T02:18:30;13.20;99.90
21712;DHT22;11017;53.552;9.910;2023-06-04T02:20:57;13.10;99.90
21712;DHT22;11017;53.552;9.910;2023-06-04T02:23:24;13.20;99.90
21712;DHT22;11017;53.552;9.910;2023-06-04T02:25:51;13.30;99.90
21712;DHT22;11017;53.552;9.910;2023-06-04T02:28:18;13.30;99.90
21712;DHT22;11017;53.552;9.910;2023-06-04T02:30:46;13.30;99.90
21712;DHT22;11017;53.552;9.910;2023-06-04T02:33:14;13.30;99.90
21712;DHT22;11017;53.552;9.910;2023-06-04T02:35:41;13.30;99.90
21712;DHT22;11017;53.552;9.910;2023-06-04T02:38:08;13.30;99.90
21712;DHT22;11017;53.552;9.910;2023-06-04T02:40:35;13.20;99.90
21712;DHT22;11017;53.552;9.910;2023-06-04T02:43:02;13.20;99.90
21712;DHT22;11017;53.552;9.910;2023-06-04T02:45:29;13.20;99.90
21712;DHT22;11017;53.552;9.910;2023-06-04T02:47:57;13.20;99.90
21712;DHT22;11017;53.552;9.910;2023-06-04T02:50:24;13.20;99.90
21712;DHT22;11017;53.552;9.910;2023-06-04T02:52:51;13.20;99.90
21712;DHT22;11017;53.552;9.910;2023-06-04T02:55:18;13.20;99.90
21712;DHT22;11017;53.552;9.910;2023-06-04T02:57:45;13.20;99.90
21712;DHT22;11017;53.552;9.910;2023-06-04T03:00:13;13.20;99.90
21712;DHT22;11017;53.552;9.910;2023-06-04T03:02:43;13.20;99.90
21712;DHT22;11017;53.552;9.910;2023-06-04T03:05:12;13.30;99.90
21712;DHT22;11017;53.552;9.910;2023-06-04T03:07:41;13.20;99.90
21712;DHT22;11017;53.552;9.910;2023-06-04T03:10:11;13.30;99.90
21712;DHT22;11017;53.552;9.910;2023-06-04T03:12:38;13.20;99.90
21712;DHT22;11017;53.552;9.910;2023-06-04T03:15:06;13.20;99.90
21712;DHT22;11017;53.552;9.910;2023-06-04T03:17:33;13.20;99.90
21712;DHT22;11017;53.552;9.910;2023-06-04T03:20:00;13.20;99.90
21712;DHT22;11017;53.552;9.910;2023-06-04T03:22:31;13.20;99.90
21712;DHT22;11017;53.552;9.910;2023-06-04T03:24:59;13.20;99.90
21712;DHT22;11017;53.552;9.910;2023-06-04T03:27:26;13.20;99.90
21712;DHT22;11017;53.552;9.910;2023-06-04T03:29:53;13.20;99.90
21712;DHT22;11017;53.552;9.910;2023-06-04T03:32:20;13.30;99.90
21712;DHT22;11017;53.552;9.910;2023-06-04T03:34:46;13.30;99.90
21712;DHT22;11017;53.552;9.910;2023-06-04T03:37:13;13.30;99.90
21712;DHT22;11017;53.552;9.910;2023-06-04T03:39:41;13.10;99.90
21712;DHT22;11017;53.552;9.910;2023-06-04T03:42:08;13.10;99.90
21712;DHT22;11017;53.552;9.910;2023-06-04T03:44:35;13.20;99.90
21712;DHT22;11017;53.552;9.910;2023-06-04T03:47:02;13.10;99.90
21712;DHT22;11017;53.552;9.910;2023-06-04T03:49:29;13.20;99.90
21712;DHT22;11017;53.552;9.910;2023-06-04T03:51:56;13.20;99.90
21712;DHT22;11017;53.552;9.910;2023-06-04T03:54:23;13.20;99.90
21712;DHT22;11017;53.552;9.910;2023-06-04T03:56:51;13.20;99.90
21712;DHT22;11017;53.552;9.910;2023-06-04T03:59:18;13.20;99.90
21712;DHT22;11017;53.552;9.910;2023-06-04T04:01:45;13.20;99.90
21712;DHT22;11017;53.552;9.910;2023-06-04T04:04:12;13.20;99.90
21712;DHT22;11017;53.552;9.910;2023-06-04T04:06:39;13.20;99.90
21712;DHT22;11017;53.552;9.910;2023-06-04T04:09:06;13.20;99.90
21712;DHT22;11017;53.552;9.910;2023-06-04T04:11:33;13.10;99.90
21712;DHT22;11017;53.552;9.910;2023-06-04T04:14:02;13.00;99.90
21712;DHT22;11017;53.552;9.910;2023-06-04T04:16:28;12.80;99.90
21712;DHT22;11017;53.552;9.910;2023-06-04T04:18:55;12.80;99.90
21712;DHT22;11017;53.552;9.910;2023-06-04T04:21:22;12.90;99.90
21712;DHT22;11017;53.552;9.910;2023-06-04T04:23:49;13.00;99.90
21712;DHT22;11017;53.552;9.910;2023-06-04T04:26:17;13.10;99.90
21712;DHT22;11017;53.552;9.910;2023-06-04T04:28:44;13.20;99.90
21712;DHT22;11017;53.552;9.910;2023-06-04T04:31:12;13.20;99.90
21712;DHT22;11017;53.552;9.910;2023-06-04T04:33:40;13.20;99.90
21712;DHT22;11017;53.552;9.910;2023-06-04T04:36:07;13.20;99.90
21712;DHT22;11017;53.552;9.910;2023-06-04T04:38:38;13.20;99.90
21712;DHT22;11017;53.552;9.910;2023-06-04T04:41:06;13.10;99.90
21712;DHT22;11017;53.552;9.910;2023-06-04T04:43:36;13.20;99.90
21712;DHT22;11017;53.552;9.910;2023-06-04T04:46:03;13.30;99.90
21712;DHT22;11017;53.552;9.910;2023-06-04T04:48:32;13.30;99.90
21712;DHT22;11017;53.552;9.910;2023-06-04T04:50:59;13.40;99.90
21712;DHT22;11017;53.552;9.910;2023-06-04T04:53:26;13.50;99.90
21712;DHT22;11017;53.552;9.910;2023-06-04T04:55:53;13.60;99.90
21712;DHT22;11017;53.552;9.910;2023-06-04T04:58:20;13.60;99.90
21712;DHT22;11017;53.552;9.910;2023-06-04T05:00:47;13.60;99.90
21712;DHT22;11017;53.552;9.910;2023-06-04T05:03:14;13.50;99.90
21712;DHT22;11017;53.552;9.910;2023-06-04T05:05:43;13.50;99.90
21712;DHT22;11017;53.552;9.910;2023-06-04T05:08:10;13.60;99.90
21712;DHT22;11017;53.552;9.910;2023-06-04T05:10:36;13.70;99.90
21712;DHT22;11017;53.552;9.910;2023-06-04T05:13:03;13.80;99.90
21712;DHT22;11017;53.552;9.910;2023-06-04T05:15:32;13.80;99.90
21712;DHT22;11017;53.552;9.910;2023-06-04T05:17:59;13.90;99.90
21712;DHT22;11017;53.552;9.910;2023-06-04T05:20:27;13.90;99.90
21712;DHT22;11017;53.552;9.910;2023-06-04T05:22:56;13.90;99.90
21712;DHT22;11017;53.552;9.910;2023-06-04T05:25:23;13.80;99.90
21712;DHT22;11017;53.552;9.910;2023-06-04T05:27:52;13.90;99.90
21712;DHT22;11017;53.552;9.910;2023-06-04T05:30:20;14.00;99.90
21712;DHT22;11017;53.552;9.910;2023-06-04T05:32:47;14.10;99.90
21712;DHT22;11017;53.552;9.910;2023-06-04T05:35:16;14.10;99.90
21712;DHT22;11017;53.552;9.910;2023-06-04T05:37:43;14.20;99.90
21712;DHT22;11017;53.552;9.910;2023-06-04T05:40:12;14.20;99.90
21712;DHT22;11017;53.552;9.910;2023-06-04T05:42:44;14.20;99.90
21712;DHT22;11017;53.552;9.910;2023-06-04T05:45:11;14.30;99.90
21712;DHT22;11017;53.552;9.910;2023-06-04T05:47:38;14.40;99.90
21712;DHT22;11017;53.552;9.910;2023-06-04T05:50:06;14.40;99.90
21712;DHT22;11017;53.552;9.910;2023-06-04T05:52:33;14.50;99.90
21712;DHT22;11017;53.552;9.910;2023-06-04T05:55:02;14.50;99.90
21712;DHT22;11017;53.552;9.910;2023-06-04T05:57:30;14.50;99.90
21712;DHT22;11017;53.552;9.910;2023-06-04T05:59:57;14.60;99.90
21712;DHT22;11017;53.552;9.910;2023-06-04T06:02:24;14.70;99.90
21712;DHT22;11017;53.552;9.910;2023-06-04T06:04:51;14.80;99.90
21712;DHT22;11017;53.552;9.910;2023-06-04T06:07:17;14.90;99.90
21712;DHT22;11017;53.552;9.910;2023-06-04T06:09:45;15.00;99.90
21712;DHT22;11017;53.552;9.910;2023-06-04T06:12:12;15.00;99.90
21712;DHT22;11017;53.552;9.910;2023-06-04T06:14:40;15.10;99.90
21712;DHT22;11017;53.552;9.910;2023-06-04T06:17:07;15.10;99.90
21712;DHT22;11017;53.552;9.910;2023-06-04T06:19:35;15.20;99.90
21712;DHT22;11017;53.552;9.910;2023-06-04T06:22:02;15.20;99.90
21712;DHT22;11017;53.552;9.910;2023-06-04T06:24:30;15.30;99.90
21712;DHT22;11017;53.552;9.910;2023-06-04T06:26:57;15.40;99.90
21712;DHT22;11017;53.552;9.910;2023-06-04T06:29:23;15.60;99.90
21712;DHT22;11017;53.552;9.910;2023-06-04T06:31:52;15.70;99.90
21712;DHT22;11017;53.552;9.910;2023-06-04T06:34:18;15.90;99.90
21712;DHT22;11017;53.552;9.910;2023-06-04T06:36:45;15.80;99.90
21712;DHT22;11017;53.552;9.910;2023-06-04T06:39:13;15.70;99.90
21712;DHT22;11017;53.552;9.910;2023-06-04T06:41:40;15.70;99.90
21712;DHT22;11017;53.552;9.910;2023-06-04T06:44:07;15.90;99.90
21712;DHT22;11017;53.552;9.910;2023-06-04T06:46:34;15.70;99.90
21712;DHT22;11017;53.552;9.910;2023-06-04T06:49:02;15.80;99.90
21712;DHT22;11017;53.552;9.910;2023-06-04T06:51:30;16.10;99.90
21712;DHT22;11017;53.552;9.910;2023-06-04T06:53:56;16.30;99.90
21712;DHT22;11017;53.552;9.910;2023-06-04T06:56:23;16.50;99.90
21712;DHT22;11017;53.552;9.910;2023-06-04T06:58:51;16.40;99.90
21712;DHT22;11017;53.552;9.910;2023-06-04T07:01:20;16.60;99.90
21712;DHT22;11017;53.552;9.910;2023-06-04T07:03:47;16.60;99.90
21712;DHT22;11017;53.552;9.910;2023-06-04T07:06:16;16.70;99.90
21712;DHT22;11017;53.552;9.910;2023-06-04T07:08:43;16.70;99.90
21712;DHT22;11017;53.552;9.910;2023-06-04T07:11:09;16.90;99.90
21712;DHT22;11017;53.552;9.910;2023-06-04T07:13:37;17.00;99.90
21712;DHT22;11017;53.552;9.910;2023-06-04T07:16:04;17.20;99.90
21712;DHT22;11017;53.552;9.910;2023-06-04T07:18:31;17.50;99.90
21712;DHT22;11017;53.552;9.910;2023-06-04T07:20:59;17.40;99.90
21712;DHT22;11017;53.552;9.910;2023-06-04T07:23:27;17.20;99.90
21712;DHT22;11017;53.552;9.910;2023-06-04T07:25:54;17.50;99.90
21712;DHT22;11017;53.552;9.910;2023-06-04T07:28:21;17.70;99.90
21712;DHT22;11017;53.552;9.910;2023-06-04T07:30:49;17.80;99.90
21712;DHT22;11017;53.552;9.910;2023-06-04T07:33:15;17.90;99.90
21712;DHT22;11017;53.552;9.910;2023-06-04T07:35:42;17.90;99.90
21712;DHT22;11017;53.552;9.910;2023-06-04T07:38:09;18.20;99.90
21712;DHT22;11017;53.552;9.910;2023-06-04T07:40:37;18.20;99.90
21712;DHT22;11017;53.552;9.910;2023-06-04T07:43:04;18.00;99.90
21712;DHT22;11017;53.552;9.910;2023-06-04T07:45:31;18.20;99.90
21712;DHT22;11017;53.552;9.910;2023-06-04T07:47:58;18.40;99.90
21712;DHT22;11017;53.552;9.910;2023-06-04T07:50:25;18.50;99.90
21712;DHT22;11017;53.552;9.910;2023-06-04T07:52:52;18.60;99.90
21712;DHT22;11017;53.552;9.910;2023-06-04T07:55:19;18.60;99.90
21712;DHT22;11017;53.552;9.910;2023-06-04T07:57:47;18.20;99.90
21712;DHT22;11017;53.552;9.910;2023-06-04T08:00:15;18.30;99.90
21712;DHT22;11017;53.552;9.910;2023-06-04T08:02:43;18.80;99.90
21712;DHT22;11017;53.552;9.910;2023-06-04T08:05:10;19.10;99.90
21712;DHT22;11017;53.552;9.910;2023-06-04T08:07:39;19.40;99.90
21712;DHT22;11017;53.552;9.910;2023-06-04T08:10:06;19.30;99.90
21712;DHT22;11017;53.552;9.910;2023-06-04T08:12:33;19.30;99.90
21712;DHT22;11017;53.552;9.910;2023-06-04T08:15:02;19.20;99.90
21712;DHT22;11017;53.552;9.910;2023-06-04T08:17:29;19.50;99.90
21712;DHT22;11017;53.552;9.910;2023-06-04T08:19:56;19.70;99.90
21712;DHT22;11017;53.552;9.910;2023-06-04T08:22:23;20.00;99.90
21712;DHT22;11017;53.552;9.910;2023-06-04T08:24:50;20.20;99.90
21712;DHT22;11017;53.552;9.910;2023-06-04T08:27:17;19.80;99.90
21712;DHT22;11017;53.552;9.910;2023-06-04T08:29:44;19.90;99.90
21712;DHT22;11017;53.552;9.910;2023-06-04T08:32:12;20.20;99.90
21712;DHT22;11017;53.552;9.910;2023-06-04T08:34:39;20.30;99.90
21712;DHT22;11017;53.552;9.910;2023-06-04T08:37:06;20.10;99.90
21712;DHT22;11017;53.552;9.910;2023-06-04T08:39:34;20.40;99.90
21712;DHT22;11017;53.552;9.910;2023-06-04T08:42:03;20.30;99.90
21712;DHT22;11017;53.552;9.910;2023-06-04T08:44:33;20.50;99.90
21712;DHT22;11017;53.552;9.910;2023-06-04T08:47:03;20.70;99.90
21712;DHT22;11017;53.552;9.910;2023-06-04T08:49:34;21.00;99.90
21712;DHT22;11017;53.552;9.910;2023-06-04T08:52:02;21.40;99.90
21712;DHT22;11017;53.552;9.910;2023-06-04T08:54:30;21.60;99.90
21712;DHT22;11017;53.552;9.910;2023-06-04T08:56:57;22.00;99.90
21712;DHT22;11017;53.552;9.910;2023-06-04T08:59:24;22.70;99.90
21712;DHT22;11017;53.552;9.910;2023-06-04T09:01:52;23.10;96.80
21712;DHT22;11017;53.552;9.910;2023-06-04T09:04:19;23.20;95.90
21712;DHT22;11017;53.552;9.910;2023-06-04T09:06:48;24.00;96.80
21712;DHT22;11017;53.552;9.910;2023-06-04T09:09:17;24.90;95.90
21712;DHT22;11017;53.552;9.910;2023-06-04T09:11:50;25.60;91.50
21712;DHT22;11017;53.552;9.910;2023-06-04T09:14:18;26.10;91.50
21712;DHT22;11017;53.552;9.910;2023-06-04T09:16:46;26.90;87.40
21712;DHT22;11017;53.552;9.910;2023-06-04T09:19:13;27.50;84.20
21712;DHT22;11017;53.552;9.910;2023-06-04T09:21:52;27.50;78.20
21712;DHT22;11017;53.552;9.910;2023-06-04T09:24:20;27.80;79.40
21712;DHT22;11017;53.552;9.910;2023-06-04T09:26:48;28.10;77.70
21712;DHT22;11017;53.552;9.910;2023-06-04T09:29:15;27.50;75.90
21712;DHT22;11017;53.552;9.910;2023-06-04T09:31:45;28.00;76.50
21712;DHT22;11017;53.552;9.910;2023-06-04T09:34:12;27.10;77.00
21712;DHT22;11017;53.552;9.910;2023-06-04T09:36:39;27.60;77.10
21712;DHT22;11017;53.552;9.910;2023-06-04T09:39:16;28.10;74.10
21712;DHT22;11017;53.552;9.910;2023-06-04T09:41:43;28.20;75.00
21712;DHT22;11017;53.552;9.910;2023-06-04T09:44:10;28.40;71.80
21712;DHT22;11017;53.552;9.910;2023-06-04T09:46:37;28.30;68.90
21712;DHT22;11017;53.552;9.910;2023-06-04T09:49:05;28.80;70.10
21712;DHT22;11017;53.552;9.910;2023-06-04T09:51:32;28.60;70.60
21712;DHT22;11017;53.552;9.910;2023-06-04T09:54:00;29.50;68.00
21712;DHT22;11017;53.552;9.910;2023-06-04T09:56:29;28.80;67.80
21712;DHT22;11017;53.552;9.910;2023-06-04T09:58:58;28.60;70.10
21712;DHT22;11017;53.552;9.910;2023-06-04T10:01:28;28.90;69.40
21712;DHT22;11017;53.552;9.910;2023-06-04T10:03:58;30.00;68.90
21712;DHT22;11017;53.552;9.910;2023-06-04T10:06:25;30.40;68.10
21712;DHT22;11017;53.552;9.910;2023-06-04T10:08:55;30.40;68.40
21712;DHT22;11017;53.552;9.910;2023-06-04T10:11:33;30.20;65.30
21712;DHT22;11017;53.552;9.910;2023-06-04T10:14:03;30.10;64.00
21712;DHT22;11017;53.552;9.910;2023-06-04T10:16:33;30.00;63.80
21712;DHT22;11017;53.552;9.910;2023-06-04T10:19:00;29.90;66.70
21712;DHT22;11017;53.552;9.910;2023-06-04T10:21:28;30.40;66.20
21712;DHT22;11017;53.552;9.910;2023-06-04T10:23:57;30.20;61.90
21712;DHT22;11017;53.552;9.910;2023-06-04T10:26:25;29.90;59.80
21712;DHT22;11017;53.552;9.910;2023-06-04T10:28:54;28.00;63.50
21712;DHT22;11017;53.552;9.910;2023-06-04T10:31:23;28.50;65.80
21712;DHT22;11017;53.552;9.910;2023-06-04T10:33:54;29.00;65.70
21712;DHT22;11017;53.552;9.910;2023-06-04T10:36:22;29.20;63.60
21712;DHT22;11017;53.552;9.910;2023-06-04T10:38:50;29.90;63.50
21712;DHT22;11017;53.552;9.910;2023-06-04T10:41:19;30.60;62.50
21712;DHT22;11017;53.552;9.910;2023-06-04T10:43:47;30.50;64.40
21712;DHT22;11017;53.552;9.910;2023-06-04T10:46:18;30.30;64.20
21712;DHT22;11017;53.552;9.910;2023-06-04T10:48:47;30.40;62.50
21712;DHT22;11017;53.552;9.910;2023-06-04T10:51:28;30.20;61.30
21712;DHT22;11017;53.552;9.910;2023-06-04T10:53:55;30.50;62.50
21712;DHT22;11017;53.552;9.910;2023-06-04T10:56:25;30.90;63.20
21712;DHT22;11017;53.552;9.910;2023-06-04T10:58:53;31.80;62.30
21712;DHT22;11017;53.552;9.910;2023-06-04T11:01:25;31.90;59.20
21712;DHT22;11017;53.552;9.910;2023-06-04T11:03:52;31.00;59.20
21712;DHT22;11017;53.552;9.910;2023-06-04T11:06:19;30.10;59.60
21712;DHT22;11017;53.552;9.910;2023-06-04T11:08:47;30.80;60.00
21712;DHT22;11017;53.552;9.910;2023-06-04T11:11:14;30.70;59.50
21712;DHT22;11017;53.552;9.910;2023-06-04T11:13:42;29.60;59.60
21712;DHT22;11017;53.552;9.910;2023-06-04T11:16:15;30.10;59.70
21712;DHT22;11017;53.552;9.910;2023-06-04T11:18:54;30.20;59.80
21712;DHT22;11017;53.552;9.910;2023-06-04T11:21:21;30.50;60.00
21712;DHT22;11017;53.552;9.910;2023-06-04T11:23:48;30.00;60.30
21712;DHT22;11017;53.552;9.910;2023-06-04T11:26:16;28.90;60.20
21712;DHT22;11017;53.552;9.910;2023-06-04T11:28:43;29.30;61.40
21712;DHT22;11017;53.552;9.910;2023-06-04T11:31:10;29.40;59.90
21712;DHT22;11017;53.552;9.910;2023-06-04T11:33:46;29.90;61.60
21712;DHT22;11017;53.552;9.910;2023-06-04T11:36:22;29.70;60.10
21712;DHT22;11017;53.552;9.910;2023-06-04T11:38:57;29.40;59.40
21712;DHT22;11017;53.552;9.910;2023-06-04T11:41:27;30.00;60.50
21712;DHT22;11017;53.552;9.910;2023-06-04T11:43:55;30.60;59.70
21712;DHT22;11017;53.552;9.910;2023-06-04T11:46:22;29.70;60.90
21712;DHT22;11017;53.552;9.910;2023-06-04T11:48:52;30.10;61.20
21712;DHT22;11017;53.552;9.910;2023-06-04T11:51:19;30.70;61.40
21712;DHT22;11017;53.552;9.910;2023-06-04T11:53:47;31.40;59.80
21712;DHT22;11017;53.552;9.910;2023-06-04T11:56:14;31.20;59.50
21712;DHT22;11017;53.552;9.910;2023-06-04T11:58:41;30.20;59.90
21712;DHT22;11017;53.552;9.910;2023-06-04T12:01:08;30.00;59.40
21712;DHT22;11017;53.552;9.910;2023-06-04T12:03:38;29.70;60.30
21712;DHT22;11017;53.552;9.910;2023-06-04T12:06:13;29.90;59.10
21712;DHT22;11017;53.552;9.910;2023-06-04T12:08:46;30.90;60.00
21712;DHT22;11017;53.552;9.910;2023-06-04T12:11:28;30.20;58.80
21712;DHT22;11017;53.552;9.910;2023-06-04T12:13:57;30.70;60.10
21712;DHT22;11017;53.552;9.910;2023-06-04T12:16:25;29.90;59.60
21712;DHT22;11017;53.552;9.910;2023-06-04T12:19:04;30.30;60.00
21712;DHT22;11017;53.552;9.910;2023-06-04T12:21:33;30.10;59.80
21712;DHT22;11017;53.552;9.910;2023-06-04T12:24:07;30.20;59.90
21712;DHT22;11017;53.552;9.910;2023-06-04T12:26:34;30.00;59.90
21712;DHT22;11017;53.552;9.910;2023-06-04T12:29:08;29.90;61.00
21712;DHT22;11017;53.552;9.910;2023-06-04T12:31:36;30.00;59.00
21712;DHT22;11017;53.552;9.910;2023-06-04T12:34:04;29.60;59.80
21712;DHT22;11017;53.552;9.910;2023-06-04T12:36:31;30.40;59.70
21712;DHT22;11017;53.552;9.910;2023-06-04T12:39:02;31.00;58.90
21712;DHT22;11017;53.552;9.910;2023-06-04T12:41:30;31.20;58.30
21712;DHT22;11017;53.552;9.910;2023-06-04T12:43:59;30.10;58.20
21712;DHT22;11017;53.552;9.910;2023-06-04T12:46:27;30.60;58.40
21712;DHT22;11017;53.552;9.910;2023-06-04T12:48:55;30.60;58.60
21712;DHT22;11017;53.552;9.910;2023-06-04T12:51:22;31.40;57.40
21712;DHT22;11017;53.552;9.910;2023-06-04T12:53:49;30.30;57.30
21712;DHT22;11017;53.552;9.910;2023-06-04T12:56:18;31.20;59.10
21712;DHT22;11017;53.552;9.910;2023-06-04T12:58:44;32.60;59.30
21712;DHT22;11017;53.552;9.910;2023-06-04T13:01:11;33.50;58.50
21712;DHT22;11017;53.552;9.910;2023-06-04T13:03:40;31.60;56.50
21712;DHT22;11017;53.552;9.910;2023-06-04T13:06:07;32.30;58.00
21712;DHT22;11017;53.552;9.910;2023-06-04T13:08:34;32.60;57.10
21712;DHT22;11017;53.552;9.910;2023-06-04T13:11:01;33.00;56.20
21712;DHT22;11017;53.552;9.910;2023-06-04T13:13:29;31.60;55.70
21712;DHT22;11017;53.552;9.910;2023-06-04T13:15:56;31.10;57.90
21712;DHT22;11017;53.552;9.910;2023-06-04T13:18:23;31.90;58.30
21712;DHT22;11017;53.552;9.910;2023-06-04T13:20:50;32.00;58.40
21712;DHT22;11017;53.552;9.910;2023-06-04T13:23:17;33.10;58.40
21712;DHT22;11017;53.552;9.910;2023-06-04T13:25:44;34.20;57.00
21712;DHT22;11017;53.552;9.910;2023-06-04T13:28:11;34.30;56.30
21712;DHT22;11017;53.552;9.910;2023-06-04T13:30:39;34.00;56.80
21712;DHT22;11017;53.552;9.910;2023-06-04T13:33:07;33.70;55.70
21712;DHT22;11017;53.552;9.910;2023-06-04T13:35:36;33.60;55.40
21712;DHT22;11017;53.552;9.910;2023-06-04T13:38:04;33.50;55.00
21712;DHT22;11017;53.552;9.910;2023-06-04T13:40:33;33.60;56.30
21712;DHT22;11017;53.552;9.910;2023-06-04T13:43:00;34.50;56.20
21712;DHT22;11017;53.552;9.910;2023-06-04T13:45:27;34.30;56.40
21712;DHT22;11017;53.552;9.910;2023-06-04T13:47:55;34.60;55.00
21712;DHT22;11017;53.552;9.910;2023-06-04T13:50:24;34.30;54.50
21712;DHT22;11017;53.552;9.910;2023-06-04T13:52:51;34.00;54.90
21712;DHT22;11017;53.552;9.910;2023-06-04T13:55:18;32.90;55.10
21712;DHT22;11017;53.552;9.910;2023-06-04T13:57:45;32.20;56.70
21712;DHT22;11017;53.552;9.910;2023-06-04T14:00:13;32.70;55.00
21712;DHT22;11017;53.552;9.910;2023-06-04T14:02:40;31.40;55.10
21712;DHT22;11017;53.552;9.910;2023-06-04T14:05:09;31.40;56.80
21712;DHT22;11017;53.552;9.910;2023-06-04T14:07:36;31.90;55.00
21712;DHT22;11017;53.552;9.910;2023-06-04T14:10:03;31.60;55.60
21712;DHT22;11017;53.552;9.910;2023-06-04T14:12:30;32.60;55.90
21712;DHT22;11017;53.552;9.910;2023-06-04T14:14:57;33.50;56.30
21712;DHT22;11017;53.552;9.910;2023-06-04T14:17:24;33.30;55.90
21712;DHT22;11017;53.552;9.910;2023-06-04T14:19:51;33.50;55.20
21712;DHT22;11017;53.552;9.910;2023-06-04T14:22:19;32.00;55.50
21712;DHT22;11017;53.552;9.910;2023-06-04T14:24:46;30.70;56.60
21712;DHT22;11017;53.552;9.910;2023-06-04T14:27:14;30.80;56.70
21712;DHT22;11017;53.552;9.910;2023-06-04T14:29:45;31.30;56.10
21712;DHT22;11017;53.552;9.910;2023-06-04T14:32:13;31.70;57.00
21712;DHT22;11017;53.552;9.910;2023-06-04T14:34:42;32.30;56.10
21712;DHT22;11017;53.552;9.910;2023-06-04T14:37:10;33.00;56.20
21712;DHT22;11017;53.552;9.910;2023-06-04T14:39:39;33.30;57.00
21712;DHT22;11017;53.552;9.910;2023-06-04T14:42:11;32.40;56.40
21712;DHT22;11017;53.552;9.910;2023-06-04T14:44:42;32.60;55.50
21712;DHT22;11017;53.552;9.910;2023-06-04T14:47:13;32.20;56.50
21712;DHT22;11017;53.552;9.910;2023-06-04T14:49:42;32.40;55.80
21712;DHT22;11017;53.552;9.910;2023-06-04T14:52:12;31.40;56.90
21712;DHT22;11017;53.552;9.910;2023-06-04T14:54:42;30.80;56.70
21712;DHT22;11017;53.552;9.910;2023-06-04T14:57:10;30.70;56.50
21712;DHT22;11017;53.552;9.910;2023-06-04T14:59:50;30.80;58.30
21712;DHT22;11017;53.552;9.910;2023-06-04T15:02:24;31.20;56.90
21712;DHT22;11017;53.552;9.910;2023-06-04T15:04:52;31.80;58.10
21712;DHT22;11017;53.552;9.910;2023-06-04T15:07:20;32.30;56.90
21712;DHT22;11017;53.552;9.910;2023-06-04T15:09:56;32.40;56.70
21712;DHT22;11017;53.552;9.910;2023-06-04T15:12:25;32.60;56.00
21712;DHT22;11017;53.552;9.910;2023-06-04T15:14:53;33.00;56.20
21712;DHT22;11017;53.552;9.910;2023-06-04T15:17:23;33.10;56.10
21712;DHT22;11017;53.552;9.910;2023-06-04T15:19:53;33.00;55.80
21712;DHT22;11017;53.552;9.910;2023-06-04T15:22:24;31.80;56.00
21712;DHT22;11017;53.552;9.910;2023-06-04T15:24:55;30.90;57.00
21712;DHT22;11017;53.552;9.910;2023-06-04T15:27:23;32.10;56.70
21712;DHT22;11017;53.552;9.910;2023-06-04T15:29:54;31.40;56.80
21712;DHT22;11017;53.552;9.910;2023-06-04T15:32:22;31.30;57.90
21712;DHT22;11017;53.552;9.910;2023-06-04T15:34:53;31.30;57.50
21712;DHT22;11017;53.552;9.910;2023-06-04T15:37:27;31.30;57.90